createdAt,value
2023-06-07T00:00:08.472Z,18.91
2023-06-07T00:00:40.409Z,18.91
2023-06-07T00:01:13.634Z,18.91
2023-06-07T00:01:45.570Z,18.90
2023-06-07T00:02:26.250Z,18.91
2023-06-07T00:03:02.486Z,18.88
2023-06-07T00:03:35.098Z,18.88
2023-06-07T00:04:07.849Z,18.89
2023-06-07T00:04:41.026Z,18.87
2023-06-07T00:05:16.168Z,18.87
2023-06-07T00:05:48.536Z,18.87
2023-06-07T00:06:20.724Z,18.88
2023-06-07T00:07:02.022Z,18.87
2023-06-07T00:07:36.770Z,18.85
2023-06-07T00:08:08.720Z,18.86
2023-06-07T00:08:40.915Z,18.84
2023-06-07T00:09:12.860Z,18.85
2023-06-07T00:09:44.788Z,18.84
2023-06-07T00:10:16.847Z,18.84
2023-06-07T00:10:48.782Z,18.84
2023-06-07T00:11:22.418Z,18.82
2023-06-07T00:11:54.558Z,18.83
2023-06-07T00:12:26.584Z,18.82
2023-06-07T00:12:58.490Z,18.85
2023-06-07T00:13:30.467Z,18.84
2023-06-07T00:14:02.530Z,18.84
2023-06-07T00:14:34.470Z,18.83
2023-06-07T00:15:07.074Z,18.83
2023-06-07T00:15:39.019Z,18.82
2023-06-07T00:16:11.711Z,18.83
2023-06-07T00:16:46.116Z,18.82
2023-06-07T00:17:18.147Z,18.84
2023-06-07T00:17:50.250Z,18.83
2023-06-07T00:18:22.385Z,18.80
2023-06-07T00:18:54.321Z,18.80
2023-06-07T00:19:30.908Z,18.80
2023-06-07T00:20:02.999Z,18.76
2023-06-07T00:20:35.133Z,18.73
2023-06-07T00:21:07.372Z,18.75
2023-06-07T00:21:39.838Z,18.78
2023-06-07T00:22:14.059Z,18.77
2023-06-07T00:22:48.653Z,18.79
2023-06-07T00:23:21.971Z,18.79
2023-06-07T00:23:53.915Z,18.78
2023-06-07T00:24:25.872Z,18.73
2023-06-07T00:24:57.831Z,18.71
2023-06-07T00:25:29.805Z,18.70
2023-06-07T00:26:01.964Z,18.69
2023-06-07T00:26:34.414Z,18.70
2023-06-07T00:27:06.387Z,18.69
2023-06-07T00:27:38.328Z,18.71
2023-06-07T00:28:10.656Z,18.72
2023-06-07T00:28:42.565Z,18.71
2023-06-07T00:29:16.069Z,18.72
2023-06-07T00:29:48.033Z,18.71
2023-06-07T00:30:20.413Z,18.70
2023-06-07T00:30:52.422Z,18.69
2023-06-07T00:31:24.373Z,18.71
2023-06-07T00:31:56.309Z,18.70
2023-06-07T00:32:28.244Z,18.65
2023-06-07T00:33:00.483Z,18.63
2023-06-07T00:33:32.676Z,18.62
2023-06-07T00:34:05.170Z,18.64
2023-06-07T00:34:37.093Z,18.61
2023-06-07T00:35:09.460Z,18.59
2023-06-07T00:35:41.349Z,18.59
2023-06-07T00:36:13.275Z,18.60
2023-06-07T00:36:45.207Z,18.58
2023-06-07T00:37:17.174Z,18.61
2023-06-07T00:37:49.104Z,18.60
2023-06-07T00:38:21.016Z,18.58
2023-06-07T00:38:52.937Z,18.57
2023-06-07T00:39:25.993Z,18.58
2023-06-07T00:39:57.917Z,18.58
2023-06-07T00:40:29.833Z,18.58
2023-06-07T00:41:01.770Z,18.58
2023-06-07T00:41:33.682Z,18.54
2023-06-07T00:42:07.108Z,18.55
2023-06-07T00:42:39.035Z,18.56
2023-06-07T00:43:10.967Z,18.55
2023-06-07T00:43:44.202Z,18.57
2023-06-07T00:44:17.690Z,18.58
2023-06-07T00:44:49.593Z,18.56
2023-06-07T00:45:21.507Z,18.51
2023-06-07T00:45:53.485Z,18.49
2023-06-07T00:46:29.215Z,18.49
2023-06-07T00:47:01.507Z,18.51
2023-06-07T00:47:34.095Z,18.49
2023-06-07T00:48:06.378Z,18.51
2023-06-07T00:48:38.580Z,18.49
2023-06-07T00:49:11.818Z,18.47
2023-06-07T00:49:44.990Z,18.48
2023-06-07T00:50:16.933Z,18.49
2023-06-07T00:50:49.042Z,18.50
2023-06-07T00:51:21.207Z,18.52
2023-06-07T00:51:53.447Z,18.50
2023-06-07T00:52:25.804Z,18.48
2023-06-07T00:52:58.039Z,18.47
2023-06-07T00:53:30.856Z,18.46
2023-06-07T00:54:06.554Z,18.47
2023-06-07T00:54:38.837Z,18.47
2023-06-07T00:55:13.220Z,18.48
2023-06-07T00:55:45.388Z,18.49
2023-06-07T00:56:17.481Z,18.50
2023-06-07T00:56:50.791Z,18.47
2023-06-07T00:57:22.918Z,18.49
2023-06-07T00:57:55.896Z,18.50
2023-06-07T00:58:29.055Z,18.48
2023-06-07T00:59:00.961Z,18.49
2023-06-07T00:59:32.909Z,18.50
2023-06-07T01:00:14.389Z,18.51
2023-06-07T01:00:46.820Z,18.52
2023-06-07T01:01:21.860Z,18.52
2023-06-07T01:01:54.378Z,18.53
2023-06-07T01:02:27.437Z,18.52
2023-06-07T01:02:59.414Z,18.50
2023-06-07T01:03:32.344Z,18.52
2023-06-07T01:04:07.046Z,18.49
2023-06-07T01:04:41.150Z,18.50
2023-06-07T01:05:14.079Z,18.54
2023-06-07T01:05:46.081Z,18.51
2023-06-07T01:06:18.102Z,18.54
2023-06-07T01:06:50.509Z,18.54
2023-06-07T01:07:26.035Z,18.55
2023-06-07T01:07:58.211Z,18.55
2023-06-07T01:08:31.556Z,18.56
2023-06-07T01:09:04.287Z,18.58
2023-06-07T01:09:36.913Z,18.56
2023-06-07T01:10:09.454Z,18.57
2023-06-07T01:10:41.673Z,18.56
2023-06-07T01:11:14.383Z,18.58
2023-06-07T01:11:49.526Z,18.58
2023-06-07T01:12:24.059Z,18.59
2023-06-07T01:12:58.205Z,18.58
2023-06-07T01:13:31.061Z,18.56
2023-06-07T01:14:03.614Z,18.52
2023-06-07T01:14:36.071Z,18.51
2023-06-07T01:15:08.594Z,18.49
2023-06-07T01:15:41.341Z,18.47
2023-06-07T01:16:14.387Z,18.45
2023-06-07T01:16:49.853Z,18.47
2023-06-07T01:17:26.181Z,18.50
2023-06-07T01:17:59.218Z,18.53
2023-06-07T01:18:31.251Z,18.55
2023-06-07T01:19:05.401Z,18.55
2023-06-07T01:19:37.952Z,18.54
2023-06-07T01:20:14.414Z,18.54
2023-06-07T01:20:55.626Z,18.56
2023-06-07T01:21:27.572Z,18.56
2023-06-07T01:22:06.025Z,18.56
2023-06-07T01:22:38.746Z,18.54
2023-06-07T01:23:12.407Z,18.54
2023-06-07T01:23:44.411Z,18.53
2023-06-07T01:24:19.704Z,18.52
2023-06-07T01:24:51.903Z,18.50
2023-06-07T01:25:24.396Z,18.49
2023-06-07T01:26:01.083Z,18.48
2023-06-07T01:26:33.106Z,18.52
2023-06-07T01:27:08.283Z,18.51
2023-06-07T01:27:42.479Z,18.51
2023-06-07T01:28:15.620Z,18.53
2023-06-07T01:28:49.076Z,18.51
2023-06-07T01:29:22.443Z,18.49
2023-06-07T01:29:59.293Z,18.44
2023-06-07T01:30:32.911Z,18.45
2023-06-07T01:31:05.401Z,18.46
2023-06-07T01:31:39.071Z,18.50
2023-06-07T01:32:13.539Z,18.52
2023-06-07T01:32:46.989Z,18.50
2023-06-07T01:33:19.700Z,18.46
2023-06-07T01:33:52.862Z,18.49
2023-06-07T01:34:25.658Z,18.52
2023-06-07T01:34:58.290Z,18.53
2023-06-07T01:35:31.293Z,18.53
2023-06-07T01:36:05.016Z,18.50
2023-06-07T01:36:37.938Z,18.51
2023-06-07T01:37:11.174Z,18.52
2023-06-07T01:37:44.002Z,18.51
2023-06-07T01:38:18.504Z,18.51
2023-06-07T01:38:51.175Z,18.52
2023-06-07T01:39:25.110Z,18.50
2023-06-07T01:39:57.318Z,18.53
2023-06-07T01:40:29.834Z,18.52
2023-06-07T01:41:02.969Z,18.51
2023-06-07T01:41:36.442Z,18.52
2023-06-07T01:42:10.192Z,18.54
2023-06-07T01:42:42.463Z,18.53
2023-06-07T01:43:15.474Z,18.49
2023-06-07T01:43:49.551Z,18.48
2023-06-07T01:44:21.717Z,18.46
2023-06-07T01:44:54.945Z,18.41
2023-06-07T01:45:27.080Z,18.45
2023-06-07T01:45:59.998Z,18.48
2023-06-07T01:46:32.072Z,18.46
2023-06-07T01:47:04.639Z,18.46
2023-06-07T01:47:36.611Z,18.47
2023-06-07T01:48:09.952Z,18.47
2023-06-07T01:48:41.924Z,18.47
2023-06-07T01:49:14.865Z,18.48
2023-06-07T01:49:46.822Z,18.51
2023-06-07T01:50:22.836Z,18.50
2023-06-07T01:50:54.750Z,18.46
2023-06-07T01:51:26.636Z,18.42
2023-06-07T01:51:58.560Z,18.38
2023-06-07T01:52:30.587Z,18.35
2023-06-07T01:53:02.504Z,18.37
2023-06-07T01:53:34.877Z,18.36
2023-06-07T01:54:07.464Z,18.40
2023-06-07T01:54:40.362Z,18.35
2023-06-07T01:55:12.375Z,18.37
2023-06-07T01:55:44.322Z,18.35
2023-06-07T01:56:34.653Z,18.30
2023-06-07T01:57:27.617Z,18.29
2023-06-07T01:58:20.311Z,18.28
2023-06-07T01:59:25.218Z,18.31
2023-06-07T02:00:23.169Z,18.35
2023-06-07T02:01:34.855Z,18.40
2023-06-07T02:02:21.632Z,18.39
2023-06-07T02:02:59.156Z,18.37
2023-06-07T02:03:36.548Z,18.39
2023-06-07T02:04:12.695Z,18.42
2023-06-07T02:04:47.582Z,18.45
2023-06-07T02:05:30.424Z,18.43
2023-06-07T02:06:09.330Z,18.42
2023-06-07T02:06:45.387Z,18.43
2023-06-07T02:07:25.013Z,18.41
2023-06-07T02:08:00.839Z,18.38
2023-06-07T02:08:40.848Z,18.35
2023-06-07T02:09:14.024Z,18.37
2023-06-07T02:09:49.148Z,18.37
2023-06-07T02:10:24.535Z,18.40
2023-06-07T02:10:57.728Z,18.38
2023-06-07T02:11:31.964Z,18.37
2023-06-07T02:12:05.286Z,18.39
2023-06-07T02:12:38.134Z,18.33
2023-06-07T02:13:11.267Z,18.34
2023-06-07T02:13:44.112Z,18.36
2023-06-07T02:14:17.438Z,18.37
2023-06-07T02:14:53.794Z,18.32
2023-06-07T02:15:25.920Z,18.34
2023-06-07T02:15:57.904Z,18.35
2023-06-07T02:16:37.313Z,18.36
2023-06-07T02:17:09.784Z,18.39
2023-06-07T02:17:59.015Z,18.37
2023-06-07T02:18:32.227Z,18.29
2023-06-07T02:19:08.397Z,18.28
2023-06-07T02:19:41.166Z,18.32
2023-06-07T02:20:13.227Z,18.33
2023-06-07T02:20:45.157Z,18.36
2023-06-07T02:21:17.081Z,18.39
2023-06-07T02:21:48.992Z,18.41
2023-06-07T02:22:20.906Z,18.40
2023-06-07T02:22:52.859Z,18.35
2023-06-07T02:23:25.047Z,18.29
2023-06-07T02:23:57.167Z,18.30
2023-06-07T02:24:29.210Z,18.25
2023-06-07T02:25:01.142Z,18.23
2023-06-07T02:25:33.535Z,18.20
2023-06-07T02:26:05.832Z,18.28
2023-06-07T02:26:38.207Z,18.32
2023-06-07T02:27:10.181Z,18.33
2023-06-07T02:27:42.100Z,18.35
2023-06-07T02:28:14.090Z,18.38
2023-06-07T02:28:46.004Z,18.38
2023-06-07T02:29:18.147Z,18.38
2023-06-07T02:29:50.042Z,18.38
2023-06-07T02:30:22.058Z,18.38
2023-06-07T02:30:56.801Z,18.36
2023-06-07T02:31:28.944Z,18.37
2023-06-07T02:32:02.144Z,18.40
2023-06-07T02:32:34.758Z,18.39
2023-06-07T02:33:08.205Z,18.40
2023-06-07T02:33:40.224Z,18.39
2023-06-07T02:34:12.157Z,18.41
2023-06-07T02:34:44.516Z,18.41
2023-06-07T02:35:19.699Z,18.40
2023-06-07T02:35:51.808Z,18.38
2023-06-07T02:36:24.293Z,18.39
2023-06-07T02:36:56.241Z,18.41
2023-06-07T02:37:29.732Z,18.39
2023-06-07T02:38:01.699Z,18.41
2023-06-07T02:38:33.631Z,18.41
2023-06-07T02:39:05.548Z,18.42
2023-06-07T02:39:37.481Z,18.37
2023-06-07T02:40:13.243Z,18.35
2023-06-07T02:40:45.175Z,18.40
2023-06-07T02:41:17.082Z,18.38
2023-06-07T02:41:49.018Z,18.34
2023-06-07T02:42:20.961Z,18.36
2023-06-07T02:42:52.921Z,18.35
2023-06-07T02:43:24.897Z,18.34
2023-06-07T02:43:56.828Z,18.35
2023-06-07T02:44:29.414Z,18.37
2023-06-07T02:45:03.047Z,18.36
2023-06-07T02:45:35.034Z,18.33
2023-06-07T02:46:08.000Z,18.34
2023-06-07T02:46:39.990Z,18.34
2023-06-07T02:47:12.009Z,18.33
2023-06-07T02:47:44.734Z,18.31
2023-06-07T02:48:17.582Z,18.28
2023-06-07T02:48:49.505Z,18.29
2023-06-07T02:49:21.533Z,18.33
2023-06-07T02:49:53.442Z,18.32
2023-06-07T02:50:25.629Z,18.34
2023-06-07T02:50:57.540Z,18.35
2023-06-07T02:51:29.456Z,18.34
2023-06-07T02:52:01.373Z,18.36
2023-06-07T02:52:34.884Z,18.37
2023-06-07T02:53:08.552Z,18.35
2023-06-07T02:53:40.470Z,18.37
2023-06-07T02:54:12.469Z,18.39
2023-06-07T02:54:44.522Z,18.37
2023-06-07T02:55:16.533Z,18.39
2023-06-07T02:55:48.456Z,18.39
2023-06-07T02:56:20.410Z,18.42
2023-06-07T02:56:52.321Z,18.43
2023-06-07T02:57:24.267Z,18.44
2023-06-07T02:57:56.214Z,18.42
2023-06-07T02:58:28.462Z,18.43
2023-06-07T02:59:00.439Z,18.40
2023-06-07T02:59:32.372Z,18.43
2023-06-07T03:00:12.059Z,18.41
2023-06-07T03:00:51.012Z,18.45
2023-06-07T03:01:23.348Z,18.44
2023-06-07T03:01:55.364Z,18.43
2023-06-07T03:02:27.401Z,18.43
2023-06-07T03:02:59.501Z,18.44
2023-06-07T03:03:31.753Z,18.44
2023-06-07T03:04:03.706Z,18.45
2023-06-07T03:04:35.639Z,18.46
2023-06-07T03:05:08.584Z,18.46
2023-06-07T03:05:42.393Z,18.44
2023-06-07T03:06:16.343Z,18.44
2023-06-07T03:06:49.700Z,18.43
2023-06-07T03:07:21.770Z,18.41
2023-06-07T03:07:53.996Z,18.41
2023-06-07T03:08:25.965Z,18.41
2023-06-07T03:08:58.101Z,18.39
2023-06-07T03:09:30.013Z,18.39
2023-06-07T03:10:05.181Z,18.38
2023-06-07T03:10:37.881Z,18.39
2023-06-07T03:11:09.770Z,18.39
2023-06-07T03:11:41.674Z,18.36
2023-06-07T03:12:13.578Z,18.37
2023-06-07T03:12:45.505Z,18.39
2023-06-07T03:13:17.418Z,18.36
2023-06-07T03:13:49.354Z,18.34
2023-06-07T03:14:21.256Z,18.33
2023-06-07T03:14:53.159Z,18.33
2023-06-07T03:15:25.056Z,18.35
2023-06-07T03:15:56.981Z,18.34
2023-06-07T03:16:29.515Z,18.37
2023-06-07T03:17:04.019Z,18.35
2023-06-07T03:17:37.338Z,18.34
2023-06-07T03:18:10.053Z,18.34
2023-06-07T03:18:41.970Z,18.36
2023-06-07T03:19:14.834Z,18.35
2023-06-07T03:19:46.751Z,18.35
2023-06-07T03:20:19.337Z,18.36
2023-06-07T03:20:51.264Z,18.35
2023-06-07T03:21:23.204Z,18.32
2023-06-07T03:21:55.141Z,18.34
2023-06-07T03:22:27.054Z,18.33
2023-06-07T03:22:58.952Z,18.34
2023-06-07T03:23:31.509Z,18.33
2023-06-07T03:24:03.578Z,18.34
2023-06-07T03:24:37.774Z,18.35
2023-06-07T03:25:10.262Z,18.33
2023-06-07T03:25:42.243Z,18.31
2023-06-07T03:26:14.255Z,18.29
2023-06-07T03:26:46.297Z,18.28
2023-06-07T03:27:18.674Z,18.26
2023-06-07T03:27:50.661Z,18.28
2023-06-07T03:28:24.019Z,18.28
2023-06-07T03:28:56.041Z,18.29
2023-06-07T03:29:28.341Z,18.27
2023-06-07T03:30:03.414Z,18.29
2023-06-07T03:30:35.717Z,18.29
2023-06-07T03:31:07.662Z,18.29
2023-06-07T03:31:39.601Z,18.30
2023-06-07T03:32:11.608Z,18.32
2023-06-07T03:32:44.638Z,18.29
2023-06-07T03:33:16.731Z,18.29
2023-06-07T03:33:48.673Z,18.23
2023-06-07T03:34:21.147Z,18.25
2023-06-07T03:34:53.044Z,18.23
2023-06-07T03:35:24.966Z,18.24
2023-06-07T03:35:57.501Z,18.15
2023-06-07T03:36:32.215Z,18.15
2023-06-07T03:37:04.289Z,18.11
2023-06-07T03:37:36.265Z,18.11
2023-06-07T03:38:08.199Z,18.17
2023-06-07T03:38:40.150Z,18.20
2023-06-07T03:39:12.168Z,18.23
2023-06-07T03:39:44.095Z,18.23
2023-06-07T03:40:16.466Z,18.17
2023-06-07T03:40:48.370Z,18.18
2023-06-07T03:41:20.281Z,18.17
2023-06-07T03:41:52.189Z,18.15
2023-06-07T03:42:24.106Z,18.15
2023-06-07T03:42:56.132Z,18.17
2023-06-07T03:43:28.038Z,18.21
2023-06-07T03:44:00.002Z,18.18
2023-06-07T03:44:31.956Z,18.19
2023-06-07T03:45:04.537Z,18.14
2023-06-07T03:45:36.485Z,18.16
2023-06-07T03:46:08.421Z,18.16
2023-06-07T03:46:41.372Z,18.19
2023-06-07T03:47:13.291Z,18.18
2023-06-07T03:47:45.226Z,18.18
2023-06-07T03:48:17.262Z,18.13
2023-06-07T03:48:51.140Z,18.13
2023-06-07T03:49:24.848Z,18.14
2023-06-07T03:49:56.763Z,18.16
2023-06-07T03:50:28.678Z,18.15
2023-06-07T03:51:00.606Z,18.15
2023-06-07T03:51:34.136Z,18.09
2023-06-07T03:52:06.561Z,18.15
2023-06-07T03:52:38.501Z,18.20
2023-06-07T03:53:10.426Z,18.24
2023-06-07T03:53:42.313Z,18.26
2023-06-07T03:54:15.085Z,18.22
2023-06-07T03:54:46.998Z,18.20
2023-06-07T03:55:21.201Z,18.19
2023-06-07T03:55:56.091Z,18.20
2023-06-07T03:56:28.016Z,18.23
2023-06-07T03:56:59.970Z,18.26
2023-06-07T03:57:31.920Z,18.26
2023-06-07T03:58:03.851Z,18.27
2023-06-07T03:58:37.182Z,18.21
2023-06-07T03:59:09.183Z,18.18
2023-06-07T03:59:44.194Z,18.15
2023-06-07T04:00:18.511Z,18.22
2023-06-07T04:00:50.427Z,18.20
2023-06-07T04:01:26.499Z,18.27
2023-06-07T04:01:58.516Z,18.27
2023-06-07T04:02:31.295Z,18.27
2023-06-07T04:03:03.372Z,18.28
2023-06-07T04:03:35.734Z,18.32
2023-06-07T04:04:09.517Z,18.29
2023-06-07T04:04:41.533Z,18.29
2023-06-07T04:05:13.971Z,18.33
2023-06-07T04:05:46.786Z,18.34
2023-06-07T04:06:21.657Z,18.36
2023-06-07T04:06:53.573Z,18.29
2023-06-07T04:07:25.494Z,18.34
2023-06-07T04:08:00.654Z,18.32
2023-06-07T04:08:32.863Z,18.31
2023-06-07T04:09:05.002Z,18.34
2023-06-07T04:09:36.998Z,18.32
2023-06-07T04:10:09.009Z,18.34
2023-06-07T04:10:42.251Z,18.39
2023-06-07T04:11:14.158Z,18.38
2023-06-07T04:11:46.295Z,18.43
2023-06-07T04:12:18.660Z,18.44
2023-06-07T04:12:50.584Z,18.46
2023-06-07T04:13:22.496Z,18.45
2023-06-07T04:13:54.543Z,18.46
2023-06-07T04:14:26.420Z,18.47
2023-06-07T04:14:58.324Z,18.47
2023-06-07T04:15:30.334Z,18.44
2023-06-07T04:16:02.310Z,18.38
2023-06-07T04:16:34.350Z,18.38
2023-06-07T04:17:06.758Z,18.35
2023-06-07T04:17:38.762Z,18.37
2023-06-07T04:18:10.737Z,18.39
2023-06-07T04:18:42.732Z,18.43
2023-06-07T04:19:14.653Z,18.45
2023-06-07T04:19:51.330Z,18.42
2023-06-07T04:20:23.576Z,18.42
2023-06-07T04:20:55.514Z,18.43
2023-06-07T04:21:27.448Z,18.45
2023-06-07T04:21:59.991Z,18.46
2023-06-07T04:22:32.688Z,18.41
2023-06-07T04:23:04.581Z,18.42
2023-06-07T04:23:36.566Z,18.39
2023-06-07T04:24:08.600Z,18.34
2023-06-07T04:24:40.636Z,18.40
2023-06-07T04:25:12.793Z,18.35
2023-06-07T04:25:44.751Z,18.34
2023-06-07T04:26:19.802Z,18.36
2023-06-07T04:26:54.518Z,18.42
2023-06-07T04:27:30.885Z,18.45
2023-06-07T04:28:03.296Z,18.42
2023-06-07T04:28:35.558Z,18.45
2023-06-07T04:29:08.525Z,18.46
2023-06-07T04:29:41.951Z,18.50
2023-06-07T04:30:13.944Z,18.52
2023-06-07T04:30:46.879Z,18.55
2023-06-07T04:31:18.952Z,18.52
2023-06-07T04:31:53.730Z,18.52
2023-06-07T04:32:26.502Z,18.51
2023-06-07T04:32:59.572Z,18.52
2023-06-07T04:33:33.548Z,18.49
2023-06-07T04:34:06.100Z,18.48
2023-06-07T04:34:43.298Z,18.47
2023-06-07T04:35:15.772Z,18.48
2023-06-07T04:35:48.065Z,18.53
2023-06-07T04:36:20.065Z,18.57
2023-06-07T04:36:52.236Z,18.52
2023-06-07T04:37:26.092Z,18.52
2023-06-07T04:37:58.837Z,18.55
2023-06-07T04:38:31.115Z,18.56
2023-06-07T04:39:04.228Z,18.54
2023-06-07T04:39:37.691Z,18.58
2023-06-07T04:40:11.152Z,18.62
2023-06-07T04:40:43.817Z,18.59
2023-06-07T04:41:15.740Z,18.58
2023-06-07T04:41:47.966Z,18.53
2023-06-07T04:42:20.833Z,18.56
2023-06-07T04:43:08.411Z,18.60
2023-06-07T04:43:40.323Z,18.62
2023-06-07T04:44:16.438Z,18.57
2023-06-07T04:44:48.506Z,18.55
2023-06-07T04:45:29.685Z,18.53
2023-06-07T04:46:02.436Z,18.49
2023-06-07T04:46:34.656Z,18.52
2023-06-07T04:47:12.753Z,18.47
2023-06-07T04:47:46.866Z,18.50
2023-06-07T04:48:21.404Z,18.55
2023-06-07T04:48:53.901Z,18.54
2023-06-07T04:49:27.132Z,18.58
2023-06-07T04:50:00.418Z,18.59
2023-06-07T04:50:32.565Z,18.56
2023-06-07T04:51:05.381Z,18.48
2023-06-07T04:51:39.897Z,18.55
2023-06-07T04:52:13.899Z,18.59
2023-06-07T04:52:46.010Z,18.64
2023-06-07T04:53:21.049Z,18.59
2023-06-07T04:53:59.507Z,18.52
2023-06-07T04:54:32.381Z,18.59
2023-06-07T04:55:05.520Z,18.60
2023-06-07T04:55:38.584Z,18.53
2023-06-07T04:56:11.175Z,18.57
2023-06-07T04:56:43.135Z,18.60
2023-06-07T04:57:15.146Z,18.62
2023-06-07T04:57:47.070Z,18.56
2023-06-07T04:58:20.244Z,18.56
2023-06-07T04:58:53.602Z,18.56
2023-06-07T04:59:26.576Z,18.44
2023-06-07T04:59:58.485Z,18.45
2023-06-07T05:00:33.136Z,18.38
2023-06-07T05:01:05.086Z,18.41
2023-06-07T05:01:37.240Z,18.35
2023-06-07T05:02:09.686Z,18.40
2023-06-07T05:02:44.839Z,18.42
2023-06-07T05:03:22.882Z,18.42
2023-06-07T05:04:01.559Z,18.47
2023-06-07T05:04:33.502Z,18.49
2023-06-07T05:05:05.862Z,18.54
2023-06-07T05:05:38.214Z,18.58
2023-06-07T05:06:10.166Z,18.58
2023-06-07T05:06:42.108Z,18.53
2023-06-07T05:07:15.135Z,18.54
2023-06-07T05:07:48.040Z,18.50
2023-06-07T05:08:20.505Z,18.56
2023-06-07T05:08:52.424Z,18.54
2023-06-07T05:09:24.379Z,18.52
2023-06-07T05:09:56.595Z,18.50
2023-06-07T05:10:28.918Z,18.53
2023-06-07T05:11:00.929Z,18.55
2023-06-07T05:11:32.845Z,18.62
2023-06-07T05:12:04.933Z,18.65
2023-06-07T05:12:36.919Z,18.68
2023-06-07T05:13:08.937Z,18.66
2023-06-07T05:13:40.843Z,18.64
2023-06-07T05:14:12.744Z,18.73
2023-06-07T05:14:44.643Z,18.78
2023-06-07T05:15:16.601Z,18.79
2023-06-07T05:15:51.906Z,18.78
2023-06-07T05:16:25.798Z,18.78
2023-06-07T05:16:58.125Z,18.82
2023-06-07T05:17:30.770Z,18.85
2023-06-07T05:18:03.780Z,18.85
2023-06-07T05:18:37.291Z,18.91
2023-06-07T05:19:09.242Z,18.86
2023-06-07T05:19:41.150Z,18.75
2023-06-07T05:20:14.999Z,18.82
2023-06-07T05:20:49.700Z,18.88
2023-06-07T05:21:21.615Z,18.92
2023-06-07T05:21:53.528Z,18.97
2023-06-07T05:22:25.456Z,18.97
2023-06-07T05:22:58.118Z,18.88
2023-06-07T05:23:30.139Z,18.95
2023-06-07T05:24:02.247Z,19.00
2023-06-07T05:24:34.293Z,18.96
2023-06-07T05:25:06.927Z,18.97
2023-06-07T05:25:40.127Z,19.00
2023-06-07T05:26:12.350Z,18.99
2023-06-07T05:26:44.300Z,18.95
2023-06-07T05:27:16.708Z,18.86
2023-06-07T05:28:03.881Z,18.88
2023-06-07T05:28:42.305Z,18.96
2023-06-07T05:29:14.700Z,19.05
2023-06-07T05:29:46.946Z,19.05
2023-06-07T05:30:18.938Z,19.12
2023-06-07T05:30:51.348Z,19.12
2023-06-07T05:31:24.420Z,19.14
2023-06-07T05:31:57.039Z,19.15
2023-06-07T05:32:29.039Z,19.19
2023-06-07T05:33:01.057Z,19.25
2023-06-07T05:33:33.173Z,19.25
2023-06-07T05:34:05.105Z,19.23
2023-06-07T05:34:37.031Z,19.28
2023-06-07T05:35:09.696Z,19.33
2023-06-07T05:35:46.229Z,19.32
2023-06-07T05:36:18.167Z,19.34
2023-06-07T05:36:50.352Z,19.39
2023-06-07T05:37:22.258Z,19.36
2023-06-07T05:37:54.176Z,19.40
2023-06-07T05:38:26.329Z,19.38
2023-06-07T05:38:59.637Z,19.44
2023-06-07T05:39:31.541Z,19.47
2023-06-07T05:40:06.658Z,19.45
2023-06-07T05:40:38.872Z,19.50
2023-06-07T05:41:10.795Z,19.44
2023-06-07T05:41:43.442Z,19.44
2023-06-07T05:42:15.403Z,19.49
2023-06-07T05:42:47.444Z,19.53
2023-06-07T05:43:19.358Z,19.51
2023-06-07T05:43:51.264Z,19.50
2023-06-07T05:44:23.185Z,19.54
2023-06-07T05:44:55.629Z,19.54
2023-06-07T05:45:27.663Z,19.56
2023-06-07T05:45:59.662Z,19.52
2023-06-07T05:46:31.627Z,19.56
2023-06-07T05:47:03.596Z,19.59
2023-06-07T05:47:35.710Z,19.61
2023-06-07T05:48:08.260Z,19.66
2023-06-07T05:48:40.298Z,19.67
2023-06-07T05:49:12.193Z,19.68
2023-06-07T05:49:45.196Z,19.67
2023-06-07T05:50:20.644Z,19.70
2023-06-07T05:50:53.345Z,19.69
2023-06-07T05:51:25.319Z,19.70
2023-06-07T05:51:57.840Z,19.70
2023-06-07T05:52:29.800Z,19.72
2023-06-07T05:53:01.700Z,19.74
2023-06-07T05:53:33.621Z,19.73
2023-06-07T05:54:08.152Z,19.70
2023-06-07T05:54:40.233Z,19.73
2023-06-07T05:55:12.179Z,19.70
2023-06-07T05:55:46.510Z,19.75
2023-06-07T05:56:20.015Z,19.78
2023-06-07T05:56:54.278Z,19.83
2023-06-07T05:57:26.405Z,19.85
2023-06-07T05:58:04.971Z,19.86
2023-06-07T05:58:36.961Z,19.88
2023-06-07T05:59:08.879Z,19.86
2023-06-07T05:59:40.781Z,19.81
2023-06-07T06:00:13.128Z,19.69
2023-06-07T06:00:45.541Z,19.69
2023-06-07T06:01:18.328Z,19.71
2023-06-07T06:01:50.511Z,19.78
2023-06-07T06:02:24.373Z,19.80
2023-06-07T06:02:57.787Z,19.81
2023-06-07T06:03:29.904Z,19.81
2023-06-07T06:04:02.518Z,19.80
2023-06-07T06:04:35.029Z,19.75
2023-06-07T06:05:07.742Z,19.76
2023-06-07T06:05:39.666Z,19.78
2023-06-07T06:06:16.560Z,19.72
2023-06-07T06:06:49.489Z,19.66
2023-06-07T06:07:21.404Z,19.64
2023-06-07T06:07:53.726Z,19.72
2023-06-07T06:08:25.689Z,19.79
2023-06-07T06:08:57.592Z,19.81
2023-06-07T06:09:29.866Z,19.81
2023-06-07T06:10:02.039Z,19.82
2023-06-07T06:10:35.951Z,19.86
2023-06-07T06:11:13.381Z,19.89
2023-06-07T06:11:45.363Z,19.89
2023-06-07T06:12:17.311Z,19.92
2023-06-07T06:12:49.289Z,19.94
2023-06-07T06:13:21.215Z,19.92
2023-06-07T06:13:53.129Z,19.80
2023-06-07T06:14:26.348Z,19.84
2023-06-07T06:14:58.328Z,19.84
2023-06-07T06:15:30.403Z,19.87
2023-06-07T06:16:02.363Z,19.83
2023-06-07T06:16:34.329Z,19.90
2023-06-07T06:17:07.394Z,19.95
2023-06-07T06:17:39.519Z,19.98
2023-06-07T06:18:11.533Z,19.99
2023-06-07T06:18:43.642Z,20.02
2023-06-07T06:19:15.650Z,20.02
2023-06-07T06:19:47.550Z,20.00
2023-06-07T06:20:19.461Z,19.99
2023-06-07T06:20:51.581Z,19.99
2023-06-07T06:21:23.513Z,20.00
2023-06-07T06:21:55.618Z,20.05
2023-06-07T06:22:27.747Z,20.09
2023-06-07T06:23:00.333Z,20.11
2023-06-07T06:23:32.277Z,20.13
2023-06-07T06:24:04.512Z,20.08
2023-06-07T06:24:36.464Z,20.07
2023-06-07T06:25:08.550Z,20.02
2023-06-07T06:25:40.703Z,19.96
2023-06-07T06:26:12.748Z,19.98
2023-06-07T06:26:44.644Z,19.94
2023-06-07T06:27:17.170Z,19.97
2023-06-07T06:27:49.236Z,20.00
2023-06-07T06:28:22.395Z,19.98
2023-06-07T06:28:54.441Z,20.03
2023-06-07T06:29:26.360Z,20.08
2023-06-07T06:29:58.270Z,20.13
2023-06-07T06:30:30.876Z,20.12
2023-06-07T06:31:04.508Z,20.07
2023-06-07T06:31:37.013Z,20.10
2023-06-07T06:32:09.469Z,20.10
2023-06-07T06:32:41.428Z,20.08
2023-06-07T06:33:13.453Z,20.09
2023-06-07T06:33:46.105Z,20.10
2023-06-07T06:34:19.931Z,20.07
2023-06-07T06:34:51.883Z,20.11
2023-06-07T06:35:23.811Z,20.10
2023-06-07T06:35:55.768Z,20.02
2023-06-07T06:36:27.918Z,20.09
2023-06-07T06:37:01.169Z,20.08
2023-06-07T06:37:33.091Z,20.06
2023-06-07T06:38:05.089Z,20.08
2023-06-07T06:38:37.013Z,20.11
2023-06-07T06:39:09.460Z,20.17
2023-06-07T06:39:41.420Z,20.22
2023-06-07T06:40:13.649Z,20.21
2023-06-07T06:40:46.322Z,20.22
2023-06-07T06:41:18.275Z,20.26
2023-06-07T06:41:50.167Z,20.23
2023-06-07T06:42:22.120Z,20.25
2023-06-07T06:42:54.720Z,20.29
2023-06-07T06:43:26.993Z,20.36
2023-06-07T06:43:59.159Z,20.39
2023-06-07T06:44:31.221Z,20.40
2023-06-07T06:45:03.143Z,20.40
2023-06-07T06:45:35.088Z,20.45
2023-06-07T06:46:07.223Z,20.42
2023-06-07T06:46:39.255Z,20.46
2023-06-07T06:47:11.620Z,20.47
2023-06-07T06:47:43.621Z,20.47
2023-06-07T06:48:15.597Z,20.53
2023-06-07T06:48:55.764Z,20.58
2023-06-07T06:49:34.908Z,20.56
2023-06-07T06:50:18.527Z,20.51
2023-06-07T06:50:55.115Z,20.58
2023-06-07T06:51:27.119Z,20.60
2023-06-07T06:51:59.034Z,20.64
2023-06-07T06:52:30.947Z,20.65
2023-06-07T06:53:02.852Z,20.60
2023-06-07T06:53:34.753Z,20.65
2023-06-07T06:54:06.739Z,20.63
2023-06-07T06:54:38.697Z,20.64
2023-06-07T06:55:10.856Z,20.60
2023-06-07T06:55:42.751Z,20.70
2023-06-07T06:56:14.703Z,20.76
2023-06-07T06:56:46.678Z,20.81
2023-06-07T06:57:18.586Z,20.79
2023-06-07T06:57:50.810Z,20.79
2023-06-07T06:58:22.712Z,20.80
2023-06-07T06:58:54.598Z,20.82
2023-06-07T06:59:26.521Z,20.77
2023-06-07T06:59:59.839Z,20.84
2023-06-07T07:00:36.393Z,20.92
2023-06-07T07:01:09.186Z,20.98
2023-06-07T07:01:46.985Z,20.93
2023-06-07T07:02:19.205Z,21.03
2023-06-07T07:02:51.389Z,21.08
2023-06-07T07:03:23.477Z,21.10
2023-06-07T07:03:55.434Z,21.15
2023-06-07T07:04:27.481Z,21.17
2023-06-07T07:05:00.032Z,21.18
2023-06-07T07:05:32.094Z,21.24
2023-06-07T07:06:04.136Z,21.30
2023-06-07T07:06:36.081Z,21.34